Terminal Aerodrome Forecast
Issued by NWS

Home | Current Version | Previous Version | Text Only | Print | Product List | Glossary On
Versions: 1 2 3 4 5 6 7 8 9 10 11 12 13 14 15 16 17 18 19 20 21 22 23 24 25 26
000
FTUS44 KSJT 021500 AAA
TAFBBD
TAF AMD
KBBD 021524Z 0215/0312 03007KT 4SM -DZ BR OVC004
     FM021800 04007KT 5SM BR OVC007
     FM022100 06005KT P6SM OVC009
     FM030200 09005KT 5SM BR OVC007=

USA.gov is the U.S. government's official web portal to all federal, state and local government web resources and services.